Time;durP1;ratioP1;P1;durP2;ratioP2;P2;SDS_P1;SDS_P2;PMS_P1;PMS_P2;Temp;Humidity;BMP_temperature;BMP_pressure;BME280_temperature;BME280_humidity;BME280_pressure;Samples;Min_cycle;Max_cycle;Signal;HPM_P1;HPM_P2
2021/12/20 00:03:42;;;;;;;17.40;7.00;;;;;;;0.66;98.30;98751.45;3971290;89;21568;-86
2021/12/20 00:09:44;;;;;;;16.93;6.85;;;;;;;0.60;98.62;98729.02;3937852;89;21129;-87
2021/12/20 00:15:45;;;;;;;18.77;6.33;;;;;;;0.60;98.62;98729.02;3923924;89;21108;-88
2021/12/20 00:21:46;;;;;;;20.23;7.53;;;;;;;0.73;98.21;98743.70;3915398;89;21587;-88
2021/12/20 00:27:48;;;;;;;17.52;7.87;;;;;;;0.73;98.13;98760.41;3941146;90;22163;-88
2021/12/20 00:33:49;;;;;;;21.00;7.83;;;;;;;0.73;97.97;98759.06;3929138;90;22003;-86
2021/12/20 00:46:10;;;;;;;19.20;8.70;;;;;;;0.62;97.83;98772.05;3926194;89;21706;-87
2021/12/20 00:52:12;;;;;;;18.15;9.58;;;;;;;0.57;98.03;98772.20;3925276;90;21636;-88
2021/12/20 00:58:13;;;;;;;23.50;10.48;;;;;;;0.57;98.03;98772.20;3919184;89;21084;-89
2021/12/20 01:04:15;;;;;;;20.48;9.73;;;;;;;0.60;98.25;98774.27;3927692;89;21551;-86
2021/12/20 01:10:17;;;;;;;22.45;11.03;;;;;;;0.60;98.05;98775.61;3927980;87;21432;-89
2021/12/20 01:16:28;;;;;;;22.82;11.05;;;;;;;0.62;98.18;98771.25;3973483;88;21105;-88
2021/12/20 01:22:21;;;;;;;26.48;10.95;;;;;;;0.61;98.07;98777.19;3973759;88;21076;-86
2021/12/20 01:28:23;;;;;;;21.52;9.63;;;;;;;0.61;98.01;98769.67;3939564;89;21074;-87
2021/12/20 01:34:24;;;;;;;19.87;11.35;;;;;;;0.60;98.02;98760.80;3977692;88;21520;-88
2021/12/20 01:40:25;;;;;;;22.42;11.28;;;;;;;0.60;98.24;98758.64;3963522;88;21088;-89
2021/12/20 01:46:27;;;;;;;20.77;10.85;;;;;;;0.59;98.02;98767.84;3941568;88;21132;-90
2021/12/20 01:52:38;;;;;;;18.20;9.73;;;;;;;0.60;97.90;98765.38;3926824;89;21749;-86
2021/12/20 01:58:32;;;;;;;21.55;9.35;;;;;;;0.48;97.87;98740.43;3977120;88;21076;-86
2021/12/20 02:04:43;;;;;;;15.85;8.90;;;;;;;0.62;98.08;98768.56;3971002;88;21057;-87
2021/12/20 02:10:38;;;;;;;18.25;8.58;;;;;;;0.61;97.91;98768.33;3946258;88;21155;-86
2021/12/20 02:16:42;;;;;;;17.57;8.73;;;;;;;0.60;97.70;98764.84;3928770;89;21060;-87
2021/12/20 02:22:44;;;;;;;17.82;8.45;;;;;;;0.61;97.66;98778.53;3951192;89;21113;-87
2021/12/20 02:28:49;;;;;;;24.43;9.93;;;;;;;0.62;97.65;98765.86;3945436;88;21086;-87
2021/12/20 02:41:26;;;;;;;20.65;10.72;;;;;;;0.65;97.60;98785.44;3932980;89;21130;-89
2021/12/20 02:47:28;;;;;;;16.50;10.28;;;;;;;0.65;97.50;98775.46;3925954;89;21088;-87
2021/12/20 02:53:30;;;;;;;18.62;10.53;;;;;;;0.66;97.45;98777.04;3923269;89;21261;-87
2021/12/20 02:59:31;;;;;;;22.40;11.60;;;;;;;0.66;97.44;98781.66;3942833;89;21642;-87
2021/12/20 03:05:34;;;;;;;21.50;10.75;;;;;;;0.65;97.20;98778.16;3927575;89;21052;-88
2021/12/20 03:11:37;;;;;;;19.45;10.03;;;;;;;0.65;97.20;98778.16;3929241;89;21073;-86
2021/12/20 03:17:39;;;;;;;22.87;9.95;;;;;;;0.64;97.23;98784.66;3942283;89;21073;-87
2021/12/20 03:23:40;;;;;;;13.83;7.62;;;;;;;0.46;96.98;98764.18;3927295;88;21626;-88
2021/12/20 03:29:42;;;;;;;13.83;8.48;;;;;;;0.46;96.98;98764.18;3895430;89;21093;-87
2021/12/20 03:35:43;;;;;;;20.27;8.70;;;;;;;0.57;96.95;98778.12;3861774;89;21645;-88
2021/12/20 03:41:45;;;;;;;15.88;9.40;;;;;;;0.57;97.07;98781.63;3960273;88;21623;-89
2021/12/20 03:47:46;;;;;;;15.55;9.25;;;;;;;0.57;97.00;98782.17;3967693;88;21033;-87
2021/12/20 03:53:47;;;;;;;17.57;9.03;;;;;;;0.57;97.00;98780.83;3972113;88;21671;-86
2021/12/20 03:59:49;;;;;;;18.10;8.78;;;;;;;0.58;97.03;98779.16;3977232;88;21587;-88
2021/12/20 04:05:51;;;;;;;19.85;10.35;;;;;;;0.57;97.02;98761.42;3968355;85;31443;-88
2021/12/20 04:11:52;;;;;;;19.50;9.63;;;;;;;0.57;96.84;98760.63;3977175;88;21101;-86
2021/12/20 04:17:53;;;;;;;16.55;9.05;;;;;;;0.57;97.14;98759.27;3921536;90;21064;-89
2021/12/20 04:23:55;;;;;;;19.62;8.95;;;;;;;0.55;97.16;98764.98;3966816;87;21665;-87
2021/12/20 04:29:56;;;;;;;15.25;8.68;;;;;;;0.52;97.19;98772.92;3950526;88;21629;-88
2021/12/20 04:35:57;;;;;;;19.77;10.15;;;;;;;0.49;97.12;98774.86;3951633;89;21099;-87
2021/12/20 04:42:00;;;;;;;18.57;10.35;;;;;;;0.52;97.21;98777.73;3950204;87;21089;-88
2021/12/20 04:48:03;;;;;;;19.70;9.15;;;;;;;0.51;97.24;98769.97;3953315;88;21128;-90
2021/12/20 04:54:04;;;;;;;19.10;9.70;;;;;;;0.52;97.11;98781.00;3937637;88;21683;-87
2021/12/20 05:00:10;;;;;;;21.85;8.15;;;;;;;0.51;97.27;98790.97;3948821;87;21055;-88
2021/12/20 05:06:12;;;;;;;17.95;8.70;;;;;;;0.50;96.97;98791.28;3922459;89;21071;-86
2021/12/20 05:12:15;;;;;;;13.38;7.90;;;;;;;0.49;97.19;98791.83;3957985;88;21759;-87
2021/12/20 05:18:17;;;;;;;15.98;8.45;;;;;;;0.49;97.07;98795.88;3940367;88;21597;-87
2021/12/20 05:24:18;;;;;;;16.70;7.78;;;;;;;0.49;96.99;98791.83;3954426;88;21061;-90
2021/12/20 05:30:19;;;;;;;18.52;9.18;;;;;;;0.47;96.92;98792.69;3961215;88;21087;-89
2021/12/20 05:36:21;;;;;;;19.57;9.88;;;;;;;0.45;97.05;98790.08;3952700;88;21734;-90
2021/12/20 05:42:22;;;;;;;17.12;7.75;;;;;;;0.41;97.02;98783.75;3958126;87;21224;-87
2021/12/20 05:48:23;;;;;;;32.90;16.05;;;;;;;0.39;96.98;98790.80;3971011;88;21081;-87
2021/12/20 05:54:25;;;;;;;15.40;8.08;;;;;;;0.37;96.92;98809.70;3890392;90;21128;-86
2021/12/20 06:00:27;;;;;;;19.07;9.53;;;;;;;0.35;97.17;98807.86;3968493;88;21089;-86
2021/12/20 06:06:30;;;;;;;14.75;8.15;;;;;;;0.35;97.07;98818.63;3967911;88;21072;-87
2021/12/20 06:12:31;;;;;;;15.25;8.08;;;;;;;0.32;97.10;98828.14;3956722;88;21042;-87
2021/12/20 06:18:33;;;;;;;10.68;6.30;;;;;;;0.29;97.29;98812.61;3944491;89;21140;-87
2021/12/20 06:24:34;;;;;;;12.95;7.17;;;;;;;0.29;97.20;98822.58;3930540;89;21089;-88
2021/12/20 06:30:35;;;;;;;13.10;7.35;;;;;;;0.28;97.29;98845.23;3969681;87;21105;-87
2021/12/20 06:36:37;;;;;;;12.93;7.50;;;;;;;0.28;97.29;98845.23;3954053;89;21093;-86
2021/12/20 06:42:38;;;;;;;17.87;9.28;;;;;;;0.29;97.46;98859.73;3880786;90;21116;-87
2021/12/20 06:48:40;;;;;;;18.32;9.58;;;;;;;0.27;97.43;98868.66;3861161;90;21118;-89
2021/12/20 06:54:41;;;;;;;16.90;9.48;;;;;;;0.21;97.61;98872.59;3959459;88;21058;-88
2021/12/20 07:00:42;;;;;;;17.90;9.90;;;;;;;0.22;97.78;98889.55;3920305;89;21150;-89
2021/12/20 07:06:44;;;;;;;16.42;10.18;;;;;;;0.21;97.90;98895.48;3901002;90;21731;-86
2021/12/20 07:12:46;;;;;;;22.10;10.68;;;;;;;0.20;97.94;98900.62;3945456;89;21078;-88
2021/12/20 07:18:47;;;;;;;21.27;11.22;;;;;;;0.20;98.23;98901.17;3926136;89;21097;-87
2021/12/20 07:24:48;;;;;;;18.45;11.03;;;;;;;0.21;98.11;98898.17;3923972;89;21516;-87
2021/12/20 07:30:50;;;;;;;18.98;11.25;;;;;;;0.21;98.11;98898.17;3923482;89;21613;-88
2021/12/20 07:36:53;;;;;;;19.75;10.30;;;;;;;0.23;98.32;98900.55;3940924;89;21141;-86
2021/12/20 07:42:56;;;;;;;16.20;9.03;;;;;;;0.26;98.26;98916.08;3940039;88;21050;-87
2021/12/20 07:48:58;;;;;;;18.92;11.05;;;;;;;0.28;98.41;98904.46;3937381;89;21082;-87
2021/12/20 07:55:01;;;;;;;18.95;10.68;;;;;;;0.29;98.46;98906.04;3935796;89;21116;-89
2021/12/20 08:01:04;;;;;;;29.87;14.68;;;;;;;0.30;98.26;98900.34;3935386;89;21092;-87
2021/12/20 08:07:06;;;;;;;24.65;13.25;;;;;;;0.33;98.17;98899.72;3935962;88;21045;-89
2021/12/20 08:13:09;;;;;;;26.57;14.85;;;;;;;0.37;98.28;98899.36;3925316;89;21102;-87
2021/12/20 08:19:11;;;;;;;26.85;15.05;;;;;;;0.38;98.21;98907.67;3935824;89;21079;-88
2021/12/20 08:25:13;;;;;;;21.77;12.53;;;;;;;0.39;98.36;98920.05;3932930;88;21090;-86
2021/12/20 08:31:14;;;;;;;23.15;11.63;;;;;;;0.41;98.25;98941.28;3950819;89;21064;-87
2021/12/20 08:37:16;;;;;;;23.47;12.30;;;;;;;0.36;98.27;98933.33;3960476;89;21071;-86
2021/12/20 08:43:19;;;;;;;26.73;13.53;;;;;;;0.42;98.27;98940.17;3942487;88;35816;-86
2021/12/20 08:49:22;;;;;;;20.95;11.93;;;;;;;0.42;98.21;98947.70;4061569;85;21753;-87
2021/12/20 08:55:25;;;;;;;22.40;12.78;;;;;;;0.43;98.21;98948.48;4072667;85;21069;-88
2021/12/20 09:01:27;;;;;;;21.12;12.95;;;;;;;0.43;98.30;98950.63;4025253;86;21578;-87
2021/12/20 09:07:31;;;;;;;22.55;12.65;;;;;;;0.33;98.43;98935.30;4056265;86;21645;-88
2021/12/20 09:13:33;;;;;;;23.47;13.68;;;;;;;0.49;98.31;98958.01;4044428;85;21195;-88
2021/12/20 09:19:36;;;;;;;20.70;12.58;;;;;;;0.53;98.30;98949.56;4078868;86;21078;-87
2021/12/20 09:25:43;;;;;;;19.12;10.63;;;;;;;0.58;98.31;98954.25;4074618;86;21681;-88
2021/12/20 09:31:44;;;;;;;22.27;11.83;;;;;;;0.66;98.28;98953.50;4047305;86;21415;-87
2021/12/20 09:37:50;;;;;;;20.55;11.22;;;;;;;0.69;98.10;98956.14;4041682;86;21538;-87
2021/12/20 09:43:52;;;;;;;19.62;11.03;;;;;;;0.71;98.08;98953.91;4053718;86;21586;-88
2021/12/20 09:49:54;;;;;;;18.65;10.70;;;;;;;0.73;97.92;98956.55;4050019;86;21059;-88
2021/12/20 09:55:59;;;;;;;19.50;11.28;;;;;;;0.79;97.90;98957.99;4019293;86;21749;-87
2021/12/20 10:02:00;;;;;;;18.32;10.98;;;;;;;0.83;98.08;98962.21;4036185;87;22415;-89
2021/12/20 10:08:13;;;;;;;17.27;9.63;;;;;;;0.89;98.08;98959.61;4041392;87;21067;-87
2021/12/20 10:14:16;;;;;;;15.68;8.03;;;;;;;0.90;97.74;98959.84;4055190;86;21602;-88
2021/12/20 10:20:23;;;;;;;12.53;7.50;;;;;;;0.94;97.60;98967.56;4061110;87;21041;-88
2021/12/20 10:26:25;;;;;;;12.07;7.08;;;;;;;0.95;97.32;98967.25;4042965;87;21071;-90
2021/12/20 10:32:44;;;;;;;15.93;7.95;;;;;;;1.01;97.42;98967.89;4053684;86;21134;-87
2021/12/20 10:38:56;;;;;;;11.50;6.83;;;;;;;1.08;97.25;98967.66;4046025;85;21511;-89
2021/12/20 10:45:14;;;;;;;13.75;8.45;;;;;;;1.10;97.09;98968.16;4064009;85;21076;-91
2021/12/20 10:51:31;;;;;;;17.20;8.50;;;;;;;1.16;97.18;98972.86;3973829;87;63292;-88
2021/12/20 10:57:32;;;;;;;16.47;8.70;;;;;;;1.20;96.87;98971.11;4016585;86;21080;-89
2021/12/20 11:03:39;;;;;;;13.68;6.92;;;;;;;1.30;96.75;98970.83;4022870;86;21084;-88
2021/12/20 11:09:43;;;;;;;18.02;8.25;;;;;;;1.32;96.81;98969.39;4021616;87;21390;-87
2021/12/20 11:15:45;;;;;;;10.28;6.53;;;;;;;1.40;96.89;98970.50;3977923;87;21185;-87
2021/12/20 11:21:58;;;;;;;13.95;7.03;;;;;;;1.27;96.41;98985.72;4021073;88;21068;-87
2021/12/20 11:27:59;;;;;;;17.17;7.85;;;;;;;1.10;96.54;98982.98;4026972;88;21052;-86
2021/12/20 11:34:02;;;;;;;15.18;8.05;;;;;;;0.99;96.59;98988.95;4004982;88;21552;-88
2021/12/20 11:40:08;;;;;;;14.33;7.80;;;;;;;0.81;96.60;98981.39;4009906;88;22515;-87
2021/12/20 11:46:12;;;;;;;12.80;7.83;;;;;;;0.70;96.76;98981.97;4020675;88;21075;-89
2021/12/20 11:52:19;;;;;;;13.93;7.03;;;;;;;0.68;96.82;98977.44;4010072;88;22182;-86
2021/12/20 11:58:24;;;;;;;11.28;6.10;;;;;;;0.74;96.69;98980.23;4019883;87;21061;-87
2021/12/20 12:04:46;;;;;;;12.05;7.15;;;;;;;0.79;96.79;98976.05;3991026;88;21112;-87
2021/12/20 12:10:48;;;;;;;13.62;7.80;;;;;;;0.62;96.73;98988.91;3863225;89;21760;-89
2021/12/20 12:17:08;;;;;;;19.05;9.68;;;;;;;0.48;96.99;98989.55;4030827;88;21486;-88
2021/12/20 12:23:17;;;;;;;13.18;7.80;;;;;;;0.40;97.13;98987.61;4028031;87;21048;-87
2021/12/20 12:36:09;;;;;;;15.75;7.47;;;;;;;0.33;96.80;98968.95;3961011;88;21073;-87
2021/12/20 12:56:33;;;;;;;15.50;8.30;;;;;;;0.54;96.35;98989.66;4026440;87;21030;-87
2021/12/20 13:03:46;;;;;;;15.75;9.25;;;;;;;0.51;96.25;98992.17;3978502;87;21089;-87
2021/12/20 13:09:57;;;;;;;16.62;8.20;;;;;;;0.47;96.38;99000.06;4014721;87;21559;-87
2021/12/20 13:23:28;;;;;;;11.43;6.95;;;;;;;0.46;96.38;99009.26;3967538;88;21122;-87
2021/12/20 13:29:29;;;;;;;10.48;5.87;;;;;;;0.42;96.29;99021.77;3862712;90;22168;-86
2021/12/20 13:42:06;;;;;;;13.05;7.75;;;;;;;0.40;96.23;99025.31;4068863;86;21071;-88
2021/12/20 14:16:30;;;;;;;20.95;10.93;;;;;;;0.30;96.59;99055.73;3977478;87;21050;-87
2021/12/20 14:23:44;;;;;;;17.73;10.43;;;;;;;0.29;96.62;99056.28;4101801;85;21896;-86
2021/12/20 14:50:35;;;;;;;17.00;10.32;;;;;;;0.19;96.87;99066.50;4033730;86;21159;-87
2021/12/20 15:03:43;;;;;;;21.57;11.50;;;;;;;0.16;97.07;99070.58;3901701;90;21131;-87
2021/12/20 15:10:05;;;;;;;19.77;10.08;;;;;;;0.16;96.75;99069.23;3959111;86;21690;-88
2021/12/20 15:16:06;;;;;;;20.80;9.88;;;;;;;0.16;96.75;99069.23;3962016;89;21055;-86
2021/12/20 15:22:11;;;;;;;35.63;13.13;;;;;;;0.16;96.66;99075.97;3874426;90;21055;-86
2021/12/20 15:35:18;;;;;;;23.22;11.60;;;;;;;0.15;96.38;99071.69;4070898;84;21074;-87
2021/12/20 15:41:57;;;;;;;23.22;11.48;;;;;;;0.16;96.24;99063.84;4020097;87;21025;-87
2021/12/20 15:47:57;;;;;;;19.98;10.18;;;;;;;0.16;96.21;99070.58;4004185;87;21073;-86
2021/12/20 15:53:59;;;;;;;26.90;14.50;;;;;;;0.17;95.95;99071.38;4043996;87;21063;-85
2021/12/20 16:00:01;;;;;;;27.10;11.85;;;;;;;0.16;95.83;99081.92;4029614;87;21073;-87
2021/12/20 16:06:05;;;;;;;21.30;10.53;;;;;;;0.15;95.56;99099.95;3989323;87;21053;-86
2021/12/20 16:13:05;;;;;;;16.52;10.40;;;;;;;0.14;95.60;99106.99;4000408;87;21083;-87
2021/12/20 16:19:17;;;;;;;24.20;11.20;;;;;;;0.11;95.57;99111.06;3986061;87;21128;-87
2021/12/20 16:25:20;;;;;;;22.37;12.63;;;;;;;0.11;95.95;99123.19;4059843;86;21529;-85
2021/12/20 16:31:23;;;;;;;19.92;11.35;;;;;;;0.07;96.02;99119.52;4034693;86;22358;-87
2021/12/20 16:57:53;;;;;;;26.65;14.13;;;;;;;-0.02;96.23;99132.88;4047352;87;21123;-86
2021/12/20 17:11:29;;;;;;;25.15;13.65;;;;;;;-0.04;95.83;99150.44;4029665;86;25566;-87
2021/12/20 17:17:44;;;;;;;24.20;13.75;;;;;;;-0.04;95.68;99149.91;4064296;87;21104;-87
2021/12/20 17:23:45;;;;;;;33.15;15.88;;;;;;;-0.03;95.59;99160.09;4057985;87;21448;-87
2021/12/20 17:29:47;;;;;;;28.17;14.43;;;;;;;-0.04;95.49;99156.63;4026664;87;21038;-86
2021/12/20 17:35:48;;;;;;;32.63;17.52;;;;;;;-0.12;95.32;99159.22;4008448;87;21082;-88
2021/12/20 17:42:14;;;;;;;33.55;17.32;;;;;;;-0.24;95.33;99132.84;4058210;87;21545;-87
2021/12/20 17:48:22;;;;;;;32.30;14.67;;;;;;;-0.06;95.27;99174.16;4160672;84;21579;-87
2021/12/20 17:54:24;;;;;;;37.38;18.52;;;;;;;-0.06;95.21;99172.27;4158875;84;21061;-86
2021/12/20 18:07:33;;;;;;;16.62;10.90;;;;;;;-0.26;95.23;99171.35;4174081;84;20939;-86
2021/12/20 18:13:54;;;;;;;19.80;10.43;;;;;;;-0.34;95.62;99194.91;4154089;84;21115;-86
2021/12/20 18:20:06;;;;;;;8.68;4.17;;;;;;;-0.39;95.60;99243.42;4152739;84;21085;-87
2021/12/20 18:33:12;;;;;;;3.42;1.30;;;;;;;-1.16;96.27;99285.84;4162622;84;21132;-86
2021/12/20 18:39:13;;;;;;;3.92;1.72;;;;;;;-1.33;96.10;99288.23;4139473;84;21066;-86
2021/12/20 18:52:49;;;;;;;7.37;4.57;;;;;;;-1.37;96.46;99306.03;4134642;85;21494;-85
2021/12/20 19:05:57;;;;;;;7.73;2.77;;;;;;;-1.34;96.50;99311.36;4136859;85;21037;-86
2021/12/20 19:12:22;;;;;;;5.57;2.17;;;;;;;-1.44;96.16;99328.41;4153757;83;21661;-86
2021/12/20 19:25:30;;;;;;;21.27;9.78;;;;;;;-1.64;95.57;99357.66;4108645;85;21109;-86
2021/12/20 19:32:22;;;;;;;27.33;13.37;;;;;;;-1.64;95.62;99362.22;4114869;85;21028;-86
2021/12/20 19:39:09;;;;;;;13.30;5.60;;;;;;;-1.66;94.95;99373.81;4089341;83;22183;-86
2021/12/20 19:45:38;;;;;;;36.67;7.27;;;;;;;-1.64;95.07;99376.98;3880459;90;21069;-85
2021/12/20 19:58:09;;;;;;;17.77;5.20;;;;;;;-1.74;94.15;99406.64;4053008;86;21042;-86
2021/12/20 20:04:42;;;;;;;35.53;11.67;;;;;;;-1.77;93.93;99406.65;3949514;88;21102;-85
2021/12/20 20:11:08;;;;;;;45.63;10.90;;;;;;;-1.77;93.63;99406.65;3969333;88;21067;-86
2021/12/20 20:24:03;;;;;;;14.17;5.53;;;;;;;-1.84;92.85;99433.03;3815930;91;21114;-85
2021/12/20 20:37:10;;;;;;;17.40;4.27;;;;;;;-1.87;92.10;99438.97;3971241;88;21527;-85
2021/12/20 20:43:12;;;;;;;9.53;3.37;;;;;;;-1.87;91.83;99446.21;4082343;85;21971;-85
2021/12/20 20:49:39;;;;;;;13.77;5.53;;;;;;;-1.88;91.38;99452.67;4035102;87;21083;-84
2021/12/20 21:02:06;;;;;;;13.73;4.53;;;;;;;-1.97;90.33;99474.47;4016286;87;21062;-85
2021/12/20 21:08:42;;;;;;;11.90;4.70;;;;;;;-2.05;90.07;99476.44;4133145;85;21547;-85
2021/12/20 21:29:29;;;;;;;36.47;9.23;;;;;;;-2.20;89.92;99480.56;4146199;85;21113;-84
2021/12/20 21:35:55;;;;;;;15.67;5.80;;;;;;;-2.15;90.00;99479.19;4151552;84;21050;-84
2021/12/20 21:42:04;;;;;;;15.73;5.20;;;;;;;-2.09;89.79;99493.62;4129299;84;21697;-84
2021/12/20 21:48:16;;;;;;;25.90;7.07;;;;;;;-2.04;90.35;99488.77;4160879;85;21566;-84
2021/12/20 21:54:45;;;;;;;16.50;6.50;;;;;;;-2.00;89.62;99497.30;4132198;85;21090;-84
2021/12/20 22:01:15;;;;;;;11.07;4.10;;;;;;;-1.95;90.09;99495.92;4141920;85;21069;-83
2021/12/20 22:14:34;;;;;;;9.23;3.30;;;;;;;-1.75;89.87;99506.48;4152141;85;21031;-83
2021/12/20 22:21:02;;;;;;;8.73;2.47;;;;;;;-1.68;89.89;99498.10;4136495;85;20998;-83
2021/12/20 22:27:17;;;;;;;14.23;4.17;;;;;;;-1.72;89.65;99502.41;3978190;88;21030;-83
2021/12/20 22:40:39;;;;;;;14.70;5.10;;;;;;;-1.80;89.82;99507.05;3857333;90;21086;-84
2021/12/20 22:46:43;;;;;;;14.90;5.90;;;;;;;-1.81;90.22;99506.27;3826197;91;21119;-83
2021/12/20 22:52:47;;;;;;;20.10;7.10;;;;;;;-1.70;90.60;99509.12;3993167;86;21361;-84
2021/12/20 22:59:24;;;;;;;27.30;10.17;;;;;;;-1.75;89.39;99509.16;4010796;87;21153;-83
2021/12/20 23:05:52;;;;;;;31.17;11.17;;;;;;;-1.80;89.86;99505.70;4020217;86;22402;-84
2021/12/20 23:13:02;;;;;;;27.30;10.87;;;;;;;-1.76;89.97;99519.66;4037104;87;21090;-85
2021/12/20 23:19:25;;;;;;;30.03;11.73;;;;;;;-1.78;89.95;99518.31;4053090;86;21466;-84
2021/12/20 23:39:39;;;;;;;36.70;13.60;;;;;;;-1.74;90.38;99520.15;4022640;87;21022;-84
2021/12/20 23:45:50;;;;;;;33.07;12.47;;;;;;;-1.69;90.51;99528.16;3991290;88;21556;-83
2021/12/20 23:58:50;;;;;;;35.90;13.33;;;;;;;-1.75;90.39;99542.71;3989398;86;21165;-84
